sensor_id;sensor_type;location;lat;lon;timestamp;P1;durP1;ratioP1;P2;durP2;ratioP2
19434;SDS011;9853;50.848;4.108;2023-03-03T00:01:51;37.10;;;19.33;;
19434;SDS011;9853;50.848;4.108;2023-03-03T00:03:53;36.57;;;18.13;;
19434;SDS011;9853;50.848;4.108;2023-03-03T00:05:53;46.43;;;19.00;;
19434;SDS011;9853;50.848;4.108;2023-03-03T00:07:54;43.83;;;20.50;;
19434;SDS011;9853;50.848;4.108;2023-03-03T00:09:55;43.30;;;19.73;;
19434;SDS011;9853;50.848;4.108;2023-03-03T00:11:56;39.20;;;19.47;;
19434;SDS011;9853;50.848;4.108;2023-03-03T00:13:59;40.20;;;18.87;;
19434;SDS011;9853;50.848;4.108;2023-03-03T00:18:40;42.53;;;20.07;;
19434;SDS011;9853;50.848;4.108;2023-03-03T00:20:47;38.80;;;19.53;;
19434;SDS011;9853;50.848;4.108;2023-03-03T00:22:55;36.47;;;18.30;;
19434;SDS011;9853;50.848;4.108;2023-03-03T00:25:32;36.40;;;18.97;;
19434;SDS011;9853;50.848;4.108;2023-03-03T00:27:34;38.20;;;18.70;;
19434;SDS011;9853;50.848;4.108;2023-03-03T00:29:43;35.63;;;18.63;;
19434;SDS011;9853;50.848;4.108;2023-03-03T00:31:47;42.93;;;19.40;;
19434;SDS011;9853;50.848;4.108;2023-03-03T00:33:51;39.37;;;18.73;;
19434;SDS011;9853;50.848;4.108;2023-03-03T00:35:55;45.03;;;19.27;;
19434;SDS011;9853;50.848;4.108;2023-03-03T00:38:01;38.20;;;18.60;;
19434;SDS011;9853;50.848;4.108;2023-03-03T00:40:17;34.80;;;18.20;;
19434;SDS011;9853;50.848;4.108;2023-03-03T00:42:19;37.87;;;18.30;;
19434;SDS011;9853;50.848;4.108;2023-03-03T00:46:38;34.73;;;17.93;;
19434;SDS011;9853;50.848;4.108;2023-03-03T00:48:40;35.93;;;17.77;;
19434;SDS011;9853;50.848;4.108;2023-03-03T00:50:42;42.13;;;19.63;;
19434;SDS011;9853;50.848;4.108;2023-03-03T00:52:54;39.33;;;18.57;;
19434;SDS011;9853;50.848;4.108;2023-03-03T00:55:05;36.83;;;18.50;;
19434;SDS011;9853;50.848;4.108;2023-03-03T00:57:06;38.97;;;18.93;;
19434;SDS011;9853;50.848;4.108;2023-03-03T00:59:08;39.77;;;19.80;;
19434;SDS011;9853;50.848;4.108;2023-03-03T01:01:09;42.07;;;20.03;;
19434;SDS011;9853;50.848;4.108;2023-03-03T01:03:20;41.60;;;20.03;;
19434;SDS011;9853;50.848;4.108;2023-03-03T01:05:24;43.70;;;19.60;;
19434;SDS011;9853;50.848;4.108;2023-03-03T01:07:24;40.97;;;20.67;;
19434;SDS011;9853;50.848;4.108;2023-03-03T01:09:25;46.67;;;20.63;;
19434;SDS011;9853;50.848;4.108;2023-03-03T01:11:27;43.63;;;21.03;;
19434;SDS011;9853;50.848;4.108;2023-03-03T01:13:29;44.30;;;22.47;;
19434;SDS011;9853;50.848;4.108;2023-03-03T01:15:33;43.83;;;21.87;;
19434;SDS011;9853;50.848;4.108;2023-03-03T01:17:34;46.37;;;21.40;;
19434;SDS011;9853;50.848;4.108;2023-03-03T01:19:36;45.50;;;22.47;;
19434;SDS011;9853;50.848;4.108;2023-03-03T01:21:36;48.57;;;23.30;;
19434;SDS011;9853;50.848;4.108;2023-03-03T01:23:39;49.50;;;23.83;;
19434;SDS011;9853;50.848;4.108;2023-03-03T01:25:39;48.60;;;23.40;;
19434;SDS011;9853;50.848;4.108;2023-03-03T01:27:40;45.57;;;22.60;;
19434;SDS011;9853;50.848;4.108;2023-03-03T01:29:41;53.20;;;24.83;;
19434;SDS011;9853;50.848;4.108;2023-03-03T01:31:42;49.60;;;25.67;;
19434;SDS011;9853;50.848;4.108;2023-03-03T01:33:42;52.57;;;25.27;;
19434;SDS011;9853;50.848;4.108;2023-03-03T01:35:43;54.10;;;24.30;;
19434;SDS011;9853;50.848;4.108;2023-03-03T01:37:47;54.23;;;25.83;;
19434;SDS011;9853;50.848;4.108;2023-03-03T01:39:49;48.00;;;23.67;;
19434;SDS011;9853;50.848;4.108;2023-03-03T01:41:50;54.03;;;24.20;;
19434;SDS011;9853;50.848;4.108;2023-03-03T01:43:51;56.50;;;25.13;;
19434;SDS011;9853;50.848;4.108;2023-03-03T01:48:03;53.63;;;25.30;;
19434;SDS011;9853;50.848;4.108;2023-03-03T01:50:10;58.20;;;27.70;;
19434;SDS011;9853;50.848;4.108;2023-03-03T01:52:21;54.07;;;24.57;;
19434;SDS011;9853;50.848;4.108;2023-03-03T01:54:33;63.73;;;28.10;;
19434;SDS011;9853;50.848;4.108;2023-03-03T01:56:38;58.70;;;26.43;;
19434;SDS011;9853;50.848;4.108;2023-03-03T01:58:43;50.90;;;24.87;;
19434;SDS011;9853;50.848;4.108;2023-03-03T02:00:48;59.63;;;28.03;;
19434;SDS011;9853;50.848;4.108;2023-03-03T02:02:51;60.93;;;26.13;;
19434;SDS011;9853;50.848;4.108;2023-03-03T02:04:54;61.40;;;28.43;;
19434;SDS011;9853;50.848;4.108;2023-03-03T02:06:59;61.70;;;27.40;;
19434;SDS011;9853;50.848;4.108;2023-03-03T02:09:10;64.37;;;26.27;;
19434;SDS011;9853;50.848;4.108;2023-03-03T02:11:12;57.20;;;26.47;;
19434;SDS011;9853;50.848;4.108;2023-03-03T02:13:13;58.00;;;26.03;;
19434;SDS011;9853;50.848;4.108;2023-03-03T02:17:25;60.50;;;26.37;;
19434;SDS011;9853;50.848;4.108;2023-03-03T02:21:43;52.90;;;25.17;;
19434;SDS011;9853;50.848;4.108;2023-03-03T02:23:49;64.80;;;27.60;;
19434;SDS011;9853;50.848;4.108;2023-03-03T02:27:56;69.90;;;28.07;;
19434;SDS011;9853;50.848;4.108;2023-03-03T02:29:57;61.57;;;26.13;;
19434;SDS011;9853;50.848;4.108;2023-03-03T02:32:08;64.03;;;27.97;;
19434;SDS011;9853;50.848;4.108;2023-03-03T02:34:09;58.63;;;26.07;;
19434;SDS011;9853;50.848;4.108;2023-03-03T02:36:20;65.77;;;26.67;;
19434;SDS011;9853;50.848;4.108;2023-03-03T02:40:36;57.13;;;25.10;;
19434;SDS011;9853;50.848;4.108;2023-03-03T02:42:41;65.80;;;27.10;;
19434;SDS011;9853;50.848;4.108;2023-03-03T02:44:44;57.87;;;26.10;;
19434;SDS011;9853;50.848;4.108;2023-03-03T02:46:46;65.40;;;26.90;;
19434;SDS011;9853;50.848;4.108;2023-03-03T02:48:48;62.57;;;26.20;;
19434;SDS011;9853;50.848;4.108;2023-03-03T02:50:49;61.07;;;26.50;;
19434;SDS011;9853;50.848;4.108;2023-03-03T02:52:49;57.43;;;26.37;;
19434;SDS011;9853;50.848;4.108;2023-03-03T02:54:50;62.47;;;25.70;;
19434;SDS011;9853;50.848;4.108;2023-03-03T02:56:51;60.60;;;26.57;;
19434;SDS011;9853;50.848;4.108;2023-03-03T02:58:54;57.00;;;24.63;;
19434;SDS011;9853;50.848;4.108;2023-03-03T03:00:55;57.90;;;25.07;;
19434;SDS011;9853;50.848;4.108;2023-03-03T03:02:57;57.23;;;23.40;;
19434;SDS011;9853;50.848;4.108;2023-03-03T03:04:58;52.57;;;23.33;;
19434;SDS011;9853;50.848;4.108;2023-03-03T03:06:59;59.13;;;24.37;;
19434;SDS011;9853;50.848;4.108;2023-03-03T03:09:02;51.07;;;22.87;;
19434;SDS011;9853;50.848;4.108;2023-03-03T03:11:05;48.13;;;23.00;;
19434;SDS011;9853;50.848;4.108;2023-03-03T03:13:06;50.23;;;21.43;;
19434;SDS011;9853;50.848;4.108;2023-03-03T03:15:07;49.47;;;22.07;;
19434;SDS011;9853;50.848;4.108;2023-03-03T03:17:09;46.43;;;20.83;;
19434;SDS011;9853;50.848;4.108;2023-03-03T03:19:10;48.93;;;21.83;;
19434;SDS011;9853;50.848;4.108;2023-03-03T03:21:12;48.13;;;22.13;;
19434;SDS011;9853;50.848;4.108;2023-03-03T03:23:15;46.27;;;20.70;;
19434;SDS011;9853;50.848;4.108;2023-03-03T03:25:16;43.50;;;21.10;;
19434;SDS011;9853;50.848;4.108;2023-03-03T03:27:17;42.40;;;20.77;;
19434;SDS011;9853;50.848;4.108;2023-03-03T03:29:19;44.30;;;21.10;;
19434;SDS011;9853;50.848;4.108;2023-03-03T03:31:20;50.00;;;21.70;;
19434;SDS011;9853;50.848;4.108;2023-03-03T05:18:12;127.57;;;47.60;;
19434;SDS011;9853;50.848;4.108;2023-03-03T05:45:36;138.10;;;46.73;;
19434;SDS011;9853;50.848;4.108;2023-03-03T05:48:34;127.93;;;43.47;;
19434;SDS011;9853;50.848;4.108;2023-03-03T06:09:44;124.57;;;43.23;;
19434;SDS011;9853;50.848;4.108;2023-03-03T06:12:40;123.23;;;41.27;;
19434;SDS011;9853;50.848;4.108;2023-03-03T06:15:30;130.80;;;43.93;;
19434;SDS011;9853;50.848;4.108;2023-03-03T06:21:19;114.70;;;36.87;;
19434;SDS011;9853;50.848;4.108;2023-03-03T06:24:01;107.07;;;38.67;;
19434;SDS011;9853;50.848;4.108;2023-03-03T06:26:27;123.73;;;41.93;;
